Time;durP1;ratioP1;P1;durP2;ratioP2;P2;SDS_P1;SDS_P2;PMS_P1;PMS_P2;Temp;Humidity;BMP_temperature;BMP_pressure;BME280_temperature;BME280_humidity;BME280_pressure;Samples;Min_cycle;Max_cycle;Signal;HPM_P1;HPM_P2
2021/01/04 00:02:09;;;;;;;1.35;1.25;;;-1.90;95.60;;;;;;5036010;28;20167;-70
2021/01/04 00:05:05;;;;;;;3.30;1.38;;;-2.00;96.00;;;;;;5035561;28;20178;-69
2021/01/04 00:07:50;;;;;;;1.50;1.40;;;-2.00;96.20;;;;;;5035936;28;20167;-70
2021/01/04 00:10:30;;;;;;;2.28;2.15;;;-2.00;96.00;;;;;;5035631;28;20606;-69
2021/01/04 00:13:11;;;;;;;1.65;1.42;;;-2.00;95.80;;;;;;5035753;28;20171;-70
2021/01/04 00:15:51;;;;;;;3.17;1.50;;;-2.00;95.70;;;;;;5035866;28;20758;-68
2021/01/04 00:18:28;;;;;;;2.28;2.03;;;-2.00;95.60;;;;;;5035903;28;20175;-70
2021/01/04 00:21:01;;;;;;;2.15;1.88;;;-2.10;95.40;;;;;;5035653;28;20194;-68
2021/01/04 00:23:36;;;;;;;3.50;3.20;;;-2.10;95.50;;;;;;5035874;28;20511;-69
2021/01/04 00:26:04;;;;;;;4.57;2.45;;;-2.10;95.50;;;;;;5035445;28;20249;-69
2021/01/04 00:28:34;;;;;;;1.33;1.25;;;-2.10;95.40;;;;;;5035184;28;20282;-70
2021/01/04 00:31:08;;;;;;;1.65;1.50;;;-2.10;95.40;;;;;;5035434;28;20171;-70
2021/01/04 00:33:43;;;;;;;1.27;1.23;;;-2.10;95.50;;;;;;5035572;28;20182;-69
2021/01/04 00:36:29;;;;;;;2.13;1.10;;;-2.10;95.40;;;;;;5035277;28;20257;-70
2021/01/04 00:39:16;;;;;;;1.92;1.83;;;-2.20;95.30;;;;;;5035565;28;20198;-68
2021/01/04 00:41:57;;;;;;;2.47;1.73;;;-2.20;95.20;;;;;;5035427;28;20175;-69
2021/01/04 00:44:43;;;;;;;1.73;1.63;;;-2.30;95.10;;;;;;5035452;28;20178;-69
2021/01/04 00:47:20;;;;;;;1.88;1.73;;;-2.50;95.30;;;;;;5035125;28;20163;-68
2021/01/04 00:49:49;;;;;;;5.97;2.10;;;-2.50;95.80;;;;;;5035237;28;20207;-70
2021/01/04 00:52:54;;;;;;;2.15;1.30;;;-2.50;95.90;;;;;;5035073;28;20171;-69
2021/01/04 00:55:38;;;;;;;3.50;1.83;;;-2.50;95.70;;;;;;5024166;28;20194;-67
2021/01/04 00:58:13;;;;;;;1.88;1.67;;;-2.50;95.40;;;;;;5035153;28;20178;-69
2021/01/04 01:00:50;;;;;;;1.38;1.30;;;-2.50;95.30;;;;;;5033452;28;20688;-69
2021/01/04 01:03:18;;;;;;;1.60;1.50;;;-2.60;95.30;;;;;;5035127;28;20269;-68
2021/01/04 01:06:12;;;;;;;1.60;1.50;;;-2.60;95.40;;;;;;5034715;28;20542;-68
2021/01/04 01:08:39;;;;;;;4.57;1.98;;;-2.60;95.50;;;;;;5034826;28;20191;-70
2021/01/04 01:11:18;;;;;;;1.75;1.50;;;-2.70;95.20;;;;;;5034722;28;20171;-70
2021/01/04 01:14:01;;;;;;;2.38;2.17;;;-2.80;95.20;;;;;;5034809;28;20182;-71
2021/01/04 01:16:27;;;;;;;1.83;1.65;;;-2.70;95.10;;;;;;5033552;28;20201;-69
2021/01/04 01:19:24;;;;;;;1.30;1.30;;;-2.70;94.80;;;;;;5034689;28;20214;-69
2021/01/04 01:21:49;;;;;;;3.13;1.67;;;-2.80;94.60;;;;;;5034579;28;20198;-68
2021/01/04 01:24:16;;;;;;;2.20;2.00;;;-2.90;94.40;;;;;;5034540;28;20194;-69
2021/01/04 01:27:05;;;;;;;5.97;1.90;;;-2.90;94.50;;;;;;5034354;28;20167;-69
2021/01/04 01:30:01;;;;;;;2.00;1.67;;;-3.10;95.00;;;;;;5034227;28;20240;-70
2021/01/04 01:32:34;;;;;;;3.00;1.73;;;-3.30;96.00;;;;;;5034388;28;20580;-68
2021/01/04 01:35:50;;;;;;;2.13;2.03;;;-3.20;96.40;;;;;;5034376;28;20311;-68
2021/01/04 01:38:37;;;;;;;1.30;1.10;;;-2.90;96.20;;;;;;5008724;28;20282;-69
2021/01/04 01:41:17;;;;;;;1.50;1.40;;;-2.80;95.50;;;;;;5032962;28;20262;-70
2021/01/04 01:44:10;;;;;;;1.27;1.27;;;-2.80;95.00;;;;;;5033085;28;20227;-69
2021/01/04 01:46:48;;;;;;;2.85;1.60;;;-2.70;94.50;;;;;;5034026;28;20530;-69
2021/01/04 01:49:14;;;;;;;1.92;1.67;;;-2.70;94.40;;;;;;5033877;28;20212;-69
2021/01/04 01:52:01;;;;;;;1.83;1.40;;;-2.70;94.40;;;;;;5034015;28;20533;-68
2021/01/04 01:54:51;;;;;;;1.27;1.17;;;-2.70;94.20;;;;;;5034193;28;20171;-69
2021/01/04 01:57:34;;;;;;;1.95;1.58;;;-2.80;93.80;;;;;;5033842;28;20203;-69
2021/01/04 01:59:59;;;;;;;5.07;2.20;;;-2.90;94.10;;;;;;5033791;28;20210;-69
2021/01/04 02:02:35;;;;;;;1.77;1.67;;;-2.90;94.50;;;;;;5033981;28;20171;-69
2021/01/04 02:05:10;;;;;;;7.20;2.25;;;-2.90;94.60;;;;;;5033972;28;20535;-69
2021/01/04 02:07:49;;;;;;;3.15;1.67;;;-2.80;94.60;;;;;;5033658;28;20261;-68
2021/01/04 02:10:23;;;;;;;1.85;1.75;;;-2.80;94.70;;;;;;5032333;28;20207;-69
2021/01/04 02:13:02;;;;;;;2.70;1.85;;;-2.80;94.70;;;;;;5033932;28;20183;-70
2021/01/04 02:15:34;;;;;;;2.75;2.30;;;-2.70;94.80;;;;;;5033681;28;20176;-68
2021/01/04 02:18:27;;;;;;;2.38;2.15;;;-2.60;95.10;;;;;;5033677;28;20505;-68
2021/01/04 02:21:11;;;;;;;2.25;2.10;;;-2.40;95.10;;;;;;5033671;28;20206;-70
2021/01/04 02:24:06;;;;;;;1.42;1.33;;;-2.30;94.90;;;;;;5032460;28;20202;-70
2021/01/04 02:26:32;;;;;;;4.15;2.70;;;-2.20;94.40;;;;;;5033007;28;20175;-70
2021/01/04 02:29:01;;;;;;;2.55;1.70;;;-2.10;94.00;;;;;;5033475;28;20233;-69
2021/01/04 02:31:27;;;;;;;1.75;1.65;;;-2.10;93.80;;;;;;5033453;28;20171;-70
2021/01/04 02:33:54;;;;;;;2.53;2.33;;;-2.00;93.70;;;;;;5033649;28;20625;-68
2021/01/04 02:36:21;;;;;;;3.30;1.73;;;-2.00;93.70;;;;;;5033114;28;20537;-69
2021/01/04 02:38:58;;;;;;;1.70;1.60;;;-1.90;94.00;;;;;;5033422;28;20190;-68
2021/01/04 02:41:37;;;;;;;2.60;2.40;;;-1.80;93.80;;;;;;5033529;28;20608;-69
2021/01/04 02:44:03;;;;;;;1.65;1.55;;;-1.70;93.80;;;;;;5033511;28;20533;-70
2021/01/04 02:46:30;;;;;;;2.50;1.50;;;-1.70;93.60;;;;;;5031915;28;20257;-68
2021/01/04 02:49:21;;;;;;;2.67;1.15;;;-1.60;93.80;;;;;;5033075;28;20199;-70
2021/01/04 02:51:53;;;;;;;3.60;2.03;;;-1.50;93.80;;;;;;5033479;28;20176;-70
2021/01/04 02:54:31;;;;;;;4.38;2.60;;;-1.40;93.40;;;;;;5033412;28;20659;-68
2021/01/04 02:57:48;;;;;;;4.00;2.42;;;-1.40;93.30;;;;;;5033084;28;20178;-69
2021/01/04 03:00:21;;;;;;;1.88;1.50;;;-1.40;93.40;;;;;;4999738;28;20638;-69
2021/01/04 03:02:52;;;;;;;2.08;1.70;;;-1.50;93.70;;;;;;5033400;28;20228;-69
2021/01/04 03:05:22;;;;;;;6.50;2.30;;;-1.50;93.90;;;;;;5032963;28;20175;-68
2021/01/04 03:07:59;;;;;;;2.85;2.63;;;-1.40;93.80;;;;;;5031833;28;20175;-70
2021/01/04 03:10:39;;;;;;;4.05;2.70;;;-1.30;94.10;;;;;;5032957;28;20252;-67
2021/01/04 03:13:33;;;;;;;6.40;3.35;;;-1.30;93.70;;;;;;5033072;28;20206;-68
2021/01/04 03:16:28;;;;;;;3.30;3.00;;;-1.30;93.60;;;;;;5031607;28;20178;-69
2021/01/04 03:19:01;;;;;;;1.98;1.80;;;-1.30;93.60;;;;;;5033068;28;20588;-70
2021/01/04 03:21:28;;;;;;;2.83;2.50;;;-1.30;93.70;;;;;;5033105;28;20189;-70
2021/01/04 03:23:56;;;;;;;2.78;2.03;;;-1.50;93.90;;;;;;5033089;28;20245;-70
2021/01/04 03:26:43;;;;;;;3.63;2.30;;;-1.50;94.40;;;;;;5032880;28;20227;-69
2021/01/04 03:29:08;;;;;;;3.25;1.60;;;-1.40;94.50;;;;;;5032859;28;20230;-69
2021/01/04 03:31:34;;;;;;;4.90;3.60;;;-1.40;94.60;;;;;;5032896;28;20163;-69
2021/01/04 03:34:00;;;;;;;4.23;2.40;;;-1.30;94.50;;;;;;5032987;28;20178;-68
2021/01/04 03:36:25;;;;;;;5.00;2.63;;;-1.40;94.60;;;;;;5032746;28;20171;-70
2021/01/04 03:38:51;;;;;;;2.33;1.80;;;-1.40;95.00;;;;;;5034148;28;20193;-70
2021/01/04 03:41:18;;;;;;;5.43;2.07;;;-1.40;95.10;;;;;;5036458;28;20167;-70
2021/01/04 03:43:43;;;;;;;4.40;3.35;;;-1.20;95.20;;;;;;5036440;28;20182;-70
2021/01/04 03:46:09;;;;;;;3.43;2.23;;;-1.10;95.00;;;;;;5036207;28;20662;-69
2021/01/04 03:48:37;;;;;;;5.60;3.40;;;-1.00;94.50;;;;;;5036362;28;20200;-69
2021/01/04 03:51:03;;;;;;;2.65;2.00;;;-1.00;94.10;;;;;;5036263;28;20703;-70
2021/01/04 03:53:29;;;;;;;3.25;2.88;;;-1.00;94.10;;;;;;5036203;28;20257;-69
2021/01/04 03:55:55;;;;;;;4.70;3.50;;;-1.00;94.20;;;;;;5035955;28;20244;-70
2021/01/04 03:58:21;;;;;;;8.43;2.80;;;-0.90;94.10;;;;;;5036096;28;20398;-70
2021/01/04 04:00:46;;;;;;;3.20;2.57;;;-0.90;94.10;;;;;;5035977;28;20221;-70
2021/01/04 04:03:12;;;;;;;2.53;2.33;;;-0.90;94.20;;;;;;5036233;28;20632;-69
2021/01/04 04:05:38;;;;;;;6.30;2.80;;;-0.80;94.20;;;;;;5036027;28;20166;-69
2021/01/04 04:08:04;;;;;;;5.10;2.93;;;-0.80;94.00;;;;;;5036044;28;20587;-68
2021/01/04 04:10:30;;;;;;;3.40;2.22;;;-0.70;94.00;;;;;;5035702;28;20207;-69
2021/01/04 04:12:56;;;;;;;6.43;3.00;;;-0.70;93.90;;;;;;5035944;28;20679;-70
2021/01/04 04:15:22;;;;;;;2.80;2.10;;;-0.70;94.10;;;;;;5035903;28;20412;-69
2021/01/04 04:17:48;;;;;;;3.08;2.78;;;-0.70;94.20;;;;;;5035916;28;20189;-69
2021/01/04 04:20:21;;;;;;;4.93;2.90;;;-0.70;94.20;;;;;;5035608;28;20186;-69
2021/01/04 04:22:52;;;;;;;3.50;3.20;;;-0.70;94.10;;;;;;5035917;28;20406;-68
2021/01/04 04:25:20;;;;;;;3.25;2.90;;;-0.60;94.10;;;;;;5035516;28;20175;-69
2021/01/04 04:27:46;;;;;;;3.15;2.15;;;-0.60;94.10;;;;;;5035795;28;20629;-70
2021/01/04 04:30:15;;;;;;;8.50;3.20;;;-0.60;94.10;;;;;;5035364;28;20222;-69
2021/01/04 04:32:41;;;;;;;3.67;2.97;;;-0.60;94.20;;;;;;5035615;28;20628;-70
2021/01/04 04:35:09;;;;;;;1.83;1.63;;;-0.60;94.30;;;;;;5035361;28;20220;-70
2021/01/04 04:37:35;;;;;;;3.45;2.25;;;-0.60;94.40;;;;;;5035229;28;20163;-69
2021/01/04 04:40:00;;;;;;;5.77;3.20;;;-0.50;94.50;;;;;;5035421;28;20687;-69
2021/01/04 04:42:26;;;;;;;4.03;2.57;;;-0.40;94.40;;;;;;5035427;28;20171;-70
2021/01/04 04:45:02;;;;;;;12.30;3.30;;;-0.30;94.70;;;;;;5035278;28;20637;-69
2021/01/04 04:47:54;;;;;;;4.05;2.75;;;-0.30;94.20;;;;;;5035062;28;20932;-69
2021/01/04 04:50:57;;;;;;;4.65;4.25;;;-0.30;94.20;;;;;;5034822;28;20249;-68
2021/01/04 04:53:41;;;;;;;1.67;1.52;;;-0.20;94.30;;;;;;5035167;28;20624;-69
2021/01/04 04:56:13;;;;;;;4.00;2.65;;;-0.10;94.30;;;;;;5035046;28;20171;-69
2021/01/04 04:59:03;;;;;;;1.73;1.63;;;-0.10;94.20;;;;;;5035154;28;20545;-69
2021/01/04 05:02:02;;;;;;;3.30;1.73;;;-0.10;94.10;;;;;;5034904;28;20185;-70
2021/01/04 05:04:41;;;;;;;6.70;2.90;;;0.00;94.10;;;;;;5011630;28;20260;-70
2021/01/04 05:07:13;;;;;;;2.50;1.73;;;0.00;94.10;;;;;;5034708;28;20197;-69
2021/01/04 05:09:53;;;;;;;6.38;2.35;;;0.00;94.10;;;;;;5034629;28;20210;-70
2021/01/04 05:12:26;;;;;;;3.80;3.33;;;0.00;94.10;;;;;;5034684;28;20530;-68
2021/01/04 05:15:13;;;;;;;3.20;2.45;;;0.00;94.20;;;;;;5034797;28;20170;-70
2021/01/04 05:18:20;;;;;;;3.40;2.33;;;-0.10;94.20;;;;;;5034625;28;20212;-69
2021/01/04 05:20:51;;;;;;;3.42;2.00;;;-0.10;94.40;;;;;;5021206;28;20186;-69
2021/01/04 05:23:26;;;;;;;1.88;1.77;;;-0.20;94.60;;;;;;5033291;28;20624;-70
2021/01/04 05:26:15;;;;;;;5.13;2.88;;;-0.30;94.60;;;;;;5034384;28;20166;-68
2021/01/04 05:29:17;;;;;;;4.10;2.90;;;-0.30;94.70;;;;;;5006070;28;20747;-69
2021/01/04 05:32:05;;;;;;;2.45;2.30;;;-0.40;94.90;;;;;;5034372;28;20175;-68
2021/01/04 05:34:53;;;;;;;5.95;4.20;;;-0.30;95.10;;;;;;5034390;28;20167;-68
2021/01/04 05:37:32;;;;;;;5.00;2.90;;;-0.30;95.20;;;;;;5034086;28;20197;-69
2021/01/04 05:40:18;;;;;;;2.80;2.42;;;-0.40;95.20;;;;;;5034390;28;20195;-68
2021/01/04 05:42:59;;;;;;;2.05;1.90;;;-0.30;95.30;;;;;;5034235;28;20261;-69
2021/01/04 05:46:22;;;;;;;4.38;2.30;;;-0.30;95.30;;;;;;5034119;28;20171;-70
2021/01/04 05:49:06;;;;;;;4.72;1.92;;;-0.40;95.10;;;;;;4973452;28;20359;-69
2021/01/04 05:51:39;;;;;;;2.08;1.60;;;-0.50;95.30;;;;;;4973268;28;20610;-69
2021/01/04 05:54:05;;;;;;;2.30;2.10;;;-0.50;95.40;;;;;;5012005;28;20205;-70
2021/01/04 05:56:32;;;;;;;2.10;1.90;;;-0.50;95.40;;;;;;5033765;28;20528;-70
2021/01/04 05:59:12;;;;;;;3.17;2.50;;;-0.40;95.50;;;;;;5033879;28;20202;-70
2021/01/04 06:01:40;;;;;;;3.63;2.90;;;-0.40;95.30;;;;;;5033293;28;20193;-69
2021/01/04 06:04:11;;;;;;;4.35;2.83;;;-0.50;95.30;;;;;;5034015;28;20228;-70
2021/01/04 06:06:47;;;;;;;3.25;2.63;;;-0.50;95.50;;;;;;5033581;28;20592;-70
2021/01/04 06:09:15;;;;;;;4.05;2.15;;;-0.50;95.40;;;;;;5033751;28;20260;-70
2021/01/04 06:11:50;;;;;;;4.30;3.03;;;-0.50;95.50;;;;;;5033772;28;20166;-69
2021/01/04 06:14:16;;;;;;;2.05;1.85;;;-0.60;95.40;;;;;;5033769;28;20166;-69
2021/01/04 06:16:45;;;;;;;2.07;1.97;;;-0.60;95.80;;;;;;5033480;28;20659;-69
2021/01/04 06:19:15;;;;;;;3.53;2.42;;;-0.40;96.00;;;;;;5033717;28;20197;-70
2021/01/04 06:21:46;;;;;;;2.65;2.45;;;-0.40;96.00;;;;;;5033584;28;20262;-70
2021/01/04 06:24:23;;;;;;;2.08;1.75;;;-0.30;96.00;;;;;;5033799;28;20253;-70
2021/01/04 06:26:52;;;;;;;2.63;1.92;;;-0.10;95.60;;;;;;5032226;28;20633;-69
2021/01/04 06:29:33;;;;;;;3.22;2.55;;;-0.10;95.50;;;;;;5033471;28;20574;-69
2021/01/04 06:32:00;;;;;;;5.00;3.03;;;-0.10;95.40;;;;;;5033500;28;20171;-68
2021/01/04 06:34:35;;;;;;;5.88;2.92;;;0.00;95.20;;;;;;5033667;28;20246;-69
2021/01/04 06:37:18;;;;;;;3.53;2.58;;;0.10;95.10;;;;;;5032102;28;20534;-70
2021/01/04 06:40:10;;;;;;;2.13;1.98;;;0.10;95.10;;;;;;5033569;28;20196;-68
2021/01/04 06:42:42;;;;;;;2.53;2.33;;;0.10;95.30;;;;;;4992266;28;20590;-69
2021/01/04 06:45:29;;;;;;;3.28;2.10;;;0.10;95.30;;;;;;5033392;28;20506;-69
2021/01/04 06:48:05;;;;;;;4.32;3.53;;;0.20;95.20;;;;;;5033598;28;20175;-70
2021/01/04 06:51:04;;;;;;;3.58;3.03;;;0.20;95.00;;;;;;5033231;28;20217;-70
2021/01/04 06:53:57;;;;;;;4.35;3.35;;;0.20;94.90;;;;;;5033311;28;20198;-70
2021/01/04 06:56:25;;;;;;;4.18;3.17;;;0.20;95.00;;;;;;5033238;28;20167;-68
2021/01/04 06:59:24;;;;;;;9.68;5.65;;;0.30;94.90;;;;;;5033333;28;20201;-70
2021/01/04 07:01:52;;;;;;;3.22;2.92;;;0.30;94.80;;;;;;5033159;28;20195;-70
2021/01/04 07:04:57;;;;;;;4.35;3.25;;;0.40;94.80;;;;;;5033352;28;20178;-70
2021/01/04 07:07:56;;;;;;;4.55;2.45;;;0.40;94.90;;;;;;5032994;28;20174;-69
2021/01/04 07:10:46;;;;;;;4.18;2.63;;;0.30;94.90;;;;;;5032989;28;20194;-68
2021/01/04 07:13:27;;;;;;;3.75;2.92;;;0.40;95.00;;;;;;5033797;28;20170;-68
2021/01/04 07:16:15;;;;;;;2.65;2.45;;;0.40;95.00;;;;;;5036999;28;20245;-68
2021/01/04 07:19:14;;;;;;;3.30;2.40;;;0.20;95.20;;;;;;5036967;28;20516;-70
2021/01/04 07:22:02;;;;;;;3.75;3.17;;;0.40;95.30;;;;;;5036786;28;20171;-70
2021/01/04 07:24:35;;;;;;;3.75;3.13;;;0.50;95.20;;;;;;5036856;28;20572;-69
2021/01/04 07:27:20;;;;;;;3.70;3.40;;;0.60;95.10;;;;;;5036689;28;20218;-69
2021/01/04 07:30:26;;;;;;;3.13;2.47;;;0.70;95.00;;;;;;5036545;28;20232;-69
2021/01/04 07:33:09;;;;;;;4.03;2.63;;;0.80;94.80;;;;;;5036855;28;20205;-69
2021/01/04 07:35:43;;;;;;;7.13;3.42;;;0.80;94.70;;;;;;5036624;28;20201;-68
2021/01/04 07:38:21;;;;;;;4.97;4.35;;;0.80;94.70;;;;;;5036690;28;20241;-68
2021/01/04 07:41:18;;;;;;;8.77;6.07;;;0.90;94.70;;;;;;5036470;28;20198;-69
2021/01/04 07:43:53;;;;;;;5.53;4.80;;;1.00;94.60;;;;;;5036569;28;20269;-70
2021/01/04 07:46:39;;;;;;;5.50;4.80;;;0.90;94.50;;;;;;5036249;28;20167;-69
2021/01/04 07:49:08;;;;;;;2.70;2.22;;;1.00;94.80;;;;;;5036438;28;20264;-70
2021/01/04 07:51:44;;;;;;;5.95;2.88;;;1.10;94.90;;;;;;5036340;28;20173;-69
2021/01/04 07:54:13;;;;;;;3.60;2.92;;;1.20;94.90;;;;;;5036365;28;20251;-69
2021/01/04 07:57:09;;;;;;;7.70;4.30;;;1.20;94.80;;;;;;5036011;28;20175;-68
2021/01/04 08:00:08;;;;;;;3.55;3.03;;;1.10;94.90;;;;;;5036106;28;20186;-69
2021/01/04 08:02:53;;;;;;;4.15;3.75;;;1.20;94.90;;;;;;5036203;28;20172;-70
2021/01/04 08:05:53;;;;;;;3.90;2.75;;;1.20;94.80;;;;;;5036581;28;20256;-70
2021/01/04 08:08:34;;;;;;;4.68;3.28;;;1.10;95.00;;;;;;5035987;28;20210;-70
2021/01/04 08:11:05;;;;;;;6.25;3.25;;;1.10;94.70;;;;;;5035877;28;20185;-69
2021/01/04 08:13:55;;;;;;;4.40;3.83;;;1.20;94.50;;;;;;5035895;28;20175;-68
2021/01/04 08:16:26;;;;;;;3.10;2.72;;;1.30;94.50;;;;;;5035836;28;20171;-68
2021/01/04 08:18:56;;;;;;;5.05;3.15;;;1.40;94.70;;;;;;5035710;28;20195;-68
2021/01/04 08:21:54;;;;;;;4.38;3.95;;;1.60;94.50;;;;;;5034505;28;20767;-69
2021/01/04 08:24:43;;;;;;;5.72;4.65;;;1.60;94.10;;;;;;5035053;28;20224;-70
2021/01/04 08:27:27;;;;;;;9.00;3.50;;;1.40;94.20;;;;;;5035513;28;20167;-69
2021/01/04 08:30:05;;;;;;;7.40;4.75;;;1.40;94.10;;;;;;5034311;28;20203;-70
2021/01/04 08:32:59;;;;;;;5.68;3.72;;;1.40;94.20;;;;;;5035430;28;20167;-70
2021/01/04 08:35:27;;;;;;;5.80;3.75;;;1.60;94.20;;;;;;5035302;28;20540;-69
2021/01/04 08:37:54;;;;;;;5.20;4.65;;;1.10;94.70;;;;;;5035516;28;20221;-70
2021/01/04 08:40:29;;;;;;;9.18;5.97;;;1.20;95.00;;;;;;5034017;28;20206;-70
2021/01/04 08:43:09;;;;;;;8.88;5.50;;;1.40;94.70;;;;;;5035333;28;20171;-68
2021/01/04 08:45:45;;;;;;;12.63;5.47;;;1.60;94.70;;;;;;5035300;28;20275;-70
2021/01/04 08:48:20;;;;;;;4.85;3.55;;;1.40;94.20;;;;;;5035456;28;20168;-69
2021/01/04 08:51:08;;;;;;;9.02;5.90;;;1.60;94.50;;;;;;5035107;28;20205;-70
2021/01/04 08:53:34;;;;;;;12.68;6.10;;;1.80;94.20;;;;;;5035286;28;20168;-69
2021/01/04 08:56:54;;;;;;;7.93;6.43;;;1.90;94.00;;;;;;5035070;28;20592;-70
2021/01/04 08:59:23;;;;;;;6.88;5.95;;;2.10;93.80;;;;;;5001642;28;20243;-68
2021/01/04 09:01:56;;;;;;;7.63;5.65;;;2.30;93.30;;;;;;5034810;28;20194;-71
2021/01/04 09:04:35;;;;;;;14.35;6.60;;;2.20;92.70;;;;;;5034890;28;20230;-70
2021/01/04 09:07:20;;;;;;;8.43;5.90;;;2.20;92.90;;;;;;5034763;28;20178;-70
2021/01/04 09:09:53;;;;;;;5.20;4.05;;;2.10;92.60;;;;;;5034721;28;20206;-68
2021/01/04 09:12:38;;;;;;;11.07;5.95;;;2.30;93.00;;;;;;5035005;28;20547;-69
2021/01/04 09:15:19;;;;;;;6.25;5.60;;;2.50;92.90;;;;;;5034984;28;20255;-69
2021/01/04 09:17:53;;;;;;;10.60;5.72;;;2.60;92.50;;;;;;5033495;28;20223;-68
2021/01/04 09:20:19;;;;;;;8.60;5.85;;;2.40;92.10;;;;;;5034456;28;20281;-70
2021/01/04 09:22:46;;;;;;;5.57;4.18;;;2.20;92.40;;;;;;5034597;28;20649;-68
2021/01/04 09:25:40;;;;;;;6.38;5.78;;;2.00;92.70;;;;;;5034447;28;20180;-69
2021/01/04 09:28:06;;;;;;;12.38;5.82;;;2.10;92.70;;;;;;5034530;28;20173;-70
2021/01/04 09:30:32;;;;;;;7.20;5.80;;;2.20;92.80;;;;;;5034388;28;20222;-69
2021/01/04 09:33:11;;;;;;;13.33;8.10;;;2.00;92.60;;;;;;5034323;28;20445;-69
2021/01/04 09:35:37;;;;;;;8.93;5.80;;;2.00;93.00;;;;;;5033514;28;20461;-69
2021/01/04 09:38:06;;;;;;;6.40;4.80;;;2.00;92.90;;;;;;5034259;28;20299;-70
2021/01/04 09:40:32;;;;;;;7.03;5.13;;;1.90;92.90;;;;;;5034273;28;20196;-70
2021/01/04 09:43:10;;;;;;;11.45;6.18;;;2.00;92.80;;;;;;5034147;28;20204;-68
2021/01/04 09:45:37;;;;;;;9.13;4.90;;;1.90;92.70;;;;;;5034136;28;20262;-70
2021/01/04 09:48:06;;;;;;;17.40;6.00;;;2.00;92.80;;;;;;5034130;28;20172;-70
2021/01/04 09:50:52;;;;;;;6.90;6.00;;;1.90;92.80;;;;;;5033828;28;20573;-70
2021/01/04 09:53:32;;;;;;;7.07;5.57;;;1.80;92.90;;;;;;5034277;28;20168;-70
2021/01/04 09:56:01;;;;;;;9.70;6.55;;;1.80;92.80;;;;;;5034187;28;20195;-70
2021/01/04 09:58:26;;;;;;;6.88;6.03;;;1.80;92.90;;;;;;5033861;28;20176;-70
2021/01/04 10:01:14;;;;;;;8.20;5.00;;;1.70;93.10;;;;;;5033741;28;20188;-68
2021/01/04 10:03:51;;;;;;;7.30;5.15;;;2.10;93.00;;;;;;5032608;28;20179;-69
2021/01/04 10:06:17;;;;;;;9.70;5.90;;;2.50;92.70;;;;;;5033729;28;20181;-70
2021/01/04 10:08:44;;;;;;;8.75;7.15;;;2.90;92.40;;;;;;5033554;28;20203;-69
2021/01/04 10:11:17;;;;;;;9.88;6.00;;;2.90;92.30;;;;;;5033872;28;20169;-70
2021/01/04 10:13:43;;;;;;;7.45;5.53;;;3.20;91.60;;;;;;5033875;28;20594;-71
2021/01/04 10:16:15;;;;;;;8.13;7.10;;;3.30;90.80;;;;;;5033544;28;20256;-68
2021/01/04 10:18:44;;;;;;;6.65;5.65;;;3.40;90.40;;;;;;5033814;28;20786;-69
2021/01/04 10:21:19;;;;;;;6.05;5.45;;;3.10;90.30;;;;;;5033621;28;20171;-68
2021/01/04 10:24:03;;;;;;;7.82;5.90;;;2.70;90.50;;;;;;5032256;28;20539;-70
2021/01/04 10:26:29;;;;;;;11.35;6.25;;;2.20;91.20;;;;;;5032134;28;20176;-69
2021/01/04 10:28:55;;;;;;;9.32;6.15;;;2.10;92.10;;;;;;5033457;28;20567;-69
2021/01/04 10:31:28;;;;;;;14.13;8.50;;;2.20;92.00;;;;;;5033429;28;20175;-70
2021/01/04 10:34:08;;;;;;;9.43;5.85;;;2.40;92.30;;;;;;5033374;28;20645;-69
2021/01/04 10:36:36;;;;;;;13.68;10.57;;;2.50;91.90;;;;;;5033517;28;20216;-69
2021/01/04 10:39:08;;;;;;;7.38;5.82;;;2.40;91.50;;;;;;5033467;28;20199;-70
2021/01/04 10:41:35;;;;;;;14.57;7.13;;;2.40;92.00;;;;;;5033333;28;20211;-69
2021/01/04 10:44:24;;;;;;;9.65;6.05;;;2.30;92.30;;;;;;5033280;28;20190;-69
2021/01/04 10:47:19;;;;;;;6.15;4.88;;;2.50;92.50;;;;;;5033243;28;20176;-70
2021/01/04 10:49:45;;;;;;;7.43;4.93;;;2.80;91.80;;;;;;5031699;28;20768;-68
2021/01/04 10:52:20;;;;;;;5.57;4.97;;;2.80;91.20;;;;;;5037337;28;20185;-70
2021/01/04 10:54:46;;;;;;;8.85;5.78;;;2.90;91.30;;;;;;5037511;28;20406;-70
2021/01/04 10:57:11;;;;;;;9.97;6.50;;;2.90;91.00;;;;;;5037204;28;20172;-70
2021/01/04 10:59:42;;;;;;;8.90;6.77;;;2.80;90.80;;;;;;5037167;28;20198;-69
2021/01/04 11:02:08;;;;;;;13.05;5.82;;;2.80;90.80;;;;;;5037141;28;20157;-70
2021/01/04 11:04:35;;;;;;;6.57;5.72;;;2.50;91.10;;;;;;5037061;28;20188;-70
2021/01/04 11:07:13;;;;;;;10.82;7.43;;;2.50;91.70;;;;;;5036964;28;20180;-70
2021/01/04 11:09:41;;;;;;;11.20;6.00;;;2.40;91.70;;;;;;5036999;28;20214;-69
2021/01/04 11:12:21;;;;;;;5.22;4.65;;;2.50;91.60;;;;;;5037140;28;20175;-69
2021/01/04 11:15:00;;;;;;;8.30;5.93;;;2.30;91.70;;;;;;5037041;28;20579;-71
2021/01/04 11:17:31;;;;;;;7.40;6.00;;;2.20;91.80;;;;;;5036757;28;20699;-69
2021/01/04 11:20:26;;;;;;;10.60;4.90;;;2.30;91.90;;;;;;5036818;28;20199;-70
2021/01/04 11:23:05;;;;;;;9.60;6.45;;;2.50;91.60;;;;;;5024087;28;20187;-69
2021/01/04 11:25:30;;;;;;;8.75;7.05;;;2.50;91.40;;;;;;5035374;28;20178;-70
2021/01/04 11:27:56;;;;;;;8.70;5.53;;;2.40;91.50;;;;;;5036738;28;20182;-70
2021/01/04 11:30:23;;;;;;;7.77;6.60;;;2.30;91.60;;;;;;5036502;28;20203;-68
2021/01/04 11:32:49;;;;;;;6.43;5.45;;;2.30;91.60;;;;;;5036844;28;20183;-70
2021/01/04 11:35:14;;;;;;;7.00;5.90;;;2.00;91.80;;;;;;5036527;28;20179;-70
2021/01/04 11:37:40;;;;;;;6.57;4.67;;;2.10;92.00;;;;;;5036780;28;20171;-69
2021/01/04 11:40:09;;;;;;;5.37;4.47;;;2.20;91.80;;;;;;5036366;28;20432;-70
2021/01/04 11:42:34;;;;;;;7.38;4.60;;;2.10;91.90;;;;;;5036388;28;20267;-70
2021/01/04 11:45:03;;;;;;;4.93;4.47;;;2.30;91.80;;;;;;5036359;28;20250;-69
2021/01/04 11:47:29;;;;;;;9.13;7.70;;;2.50;91.90;;;;;;5036145;28;20604;-69
2021/01/04 11:49:54;;;;;;;6.27;5.57;;;2.70;91.60;;;;;;5036262;28;20243;-68
2021/01/04 11:52:20;;;;;;;16.30;6.00;;;2.70;91.70;;;;;;5036443;28;20164;-69
2021/01/04 11:54:45;;;;;;;7.43;6.60;;;2.80;91.90;;;;;;5036176;28;20165;-70
2021/01/04 11:57:12;;;;;;;11.17;5.63;;;3.20;91.50;;;;;;5035996;28;20711;-70
2021/01/04 11:59:38;;;;;;;8.93;5.15;;;3.40;91.00;;;;;;5034981;28;20605;-68
2021/01/04 12:02:04;;;;;;;6.30;5.90;;;3.30;90.40;;;;;;5036272;28;20185;-71
2021/01/04 12:04:29;;;;;;;8.18;5.25;;;3.20;90.80;;;;;;5036232;28;20167;-69
2021/01/04 12:06:55;;;;;;;8.17;5.87;;;3.20;90.70;;;;;;5035755;28;20177;-69
2021/01/04 12:09:21;;;;;;;7.17;5.43;;;3.10;90.60;;;;;;5035765;28;20198;-68
2021/01/04 12:11:47;;;;;;;9.10;5.80;;;3.00;90.90;;;;;;5036048;28;20174;-70
2021/01/04 12:14:15;;;;;;;6.35;5.80;;;3.20;91.10;;;;;;5036103;28;20196;-69
2021/01/04 12:16:41;;;;;;;8.43;6.38;;;3.50;91.00;;;;;;5035668;28;20188;-69
2021/01/04 12:19:07;;;;;;;7.65;5.88;;;3.50;91.10;;;;;;5035910;28;20564;-69
2021/01/04 12:21:34;;;;;;;8.40;5.50;;;3.30;90.50;;;;;;5035671;28;20185;-71
2021/01/04 12:24:00;;;;;;;12.20;6.50;;;3.40;90.50;;;;;;5035751;28;20411;-71
2021/01/04 12:26:26;;;;;;;9.35;6.97;;;3.40;90.70;;;;;;5034119;28;20657;-69
2021/01/04 12:28:52;;;;;;;10.40;6.57;;;3.40;90.80;;;;;;5035454;28;20202;-70
2021/01/04 12:31:18;;;;;;;8.63;6.03;;;3.50;90.70;;;;;;5035457;28;20172;-71
2021/01/04 12:33:44;;;;;;;9.43;7.25;;;3.60;90.30;;;;;;5035666;28;20753;-69
2021/01/04 12:36:24;;;;;;;17.65;12.23;;;3.40;89.90;;;;;;5035324;28;20175;-71
2021/01/04 12:38:51;;;;;;;10.70;6.38;;;3.10;90.10;;;;;;5035605;28;20182;-70
2021/01/04 12:41:17;;;;;;;10.15;8.30;;;2.80;90.60;;;;;;5035394;28;20190;-70
2021/01/04 12:43:45;;;;;;;15.15;10.00;;;2.60;91.00;;;;;;5035504;28;20522;-69
2021/01/04 12:46:12;;;;;;;16.75;13.27;;;2.60;91.10;;;;;;5035154;28;20172;-69
2021/01/04 12:48:38;;;;;;;9.80;7.45;;;2.80;91.20;;;;;;5035216;28;20170;-69
2021/01/04 12:51:07;;;;;;;11.80;7.50;;;2.70;91.20;;;;;;5035144;28;20221;-70
2021/01/04 12:53:32;;;;;;;11.20;7.70;;;2.40;91.20;;;;;;5035203;28;20557;-68
2021/01/04 12:55:58;;;;;;;13.50;8.20;;;2.50;91.20;;;;;;5034886;28;20177;-70
2021/01/04 12:58:24;;;;;;;13.30;8.80;;;2.60;91.20;;;;;;5034988;28;20178;-70
2021/01/04 13:00:50;;;;;;;10.60;6.75;;;2.60;91.20;;;;;;5034911;28;20196;-69
2021/01/04 13:03:16;;;;;;;14.02;9.32;;;2.70;91.30;;;;;;5035060;28;20530;-69
2021/01/04 13:05:42;;;;;;;15.90;9.43;;;2.80;91.10;;;;;;5034703;28;20177;-70
2021/01/04 13:08:08;;;;;;;12.33;8.53;;;3.10;91.10;;;;;;5034885;28;20174;-68
2021/01/04 13:10:33;;;;;;;12.17;7.97;;;3.30;90.70;;;;;;5034514;28;20459;-68
2021/01/04 13:12:59;;;;;;;14.03;8.63;;;3.50;90.20;;;;;;5034907;28;20170;-68
2021/01/04 13:15:24;;;;;;;10.97;8.53;;;3.10;89.00;;;;;;5034551;28;20169;-68
2021/01/04 13:17:51;;;;;;;11.77;7.57;;;3.00;90.10;;;;;;5034689;28;20183;-69
2021/01/04 13:20:17;;;;;;;12.32;7.95;;;2.80;90.20;;;;;;5034581;28;20192;-68
2021/01/04 13:22:43;;;;;;;10.53;7.43;;;3.00;90.40;;;;;;5034617;28;20272;-68
2021/01/04 13:25:11;;;;;;;17.60;8.27;;;3.10;90.30;;;;;;5034506;28;20209;-70
2021/01/04 13:27:37;;;;;;;13.60;7.40;;;3.30;90.20;;;;;;5034402;28;20415;-68
2021/01/04 13:30:05;;;;;;;15.63;8.67;;;3.30;89.80;;;;;;5034504;28;20213;-69
2021/01/04 13:32:30;;;;;;;10.45;9.25;;;3.40;89.50;;;;;;5034283;28;20176;-69
2021/01/04 13:34:56;;;;;;;9.70;6.40;;;3.50;89.70;;;;;;5034406;28;20182;-69